LFBY/XDA METAR and TAF weather

Enter ICAO airport designator
Station Type Date Time Source
LFBY METAR 2019/12/14 17:00 UTC NOAA

LFBY 141700Z AUTO 20004KT 9999 // ////// 15/08 Q1011


Station Type Date Time Source
LFBY Decoded METAR 2019/12/14 17:00 UTC NOAA

Dax, France (LFBY) 43-41N 001-04W 32M
Dec 14, 2019 - 12:00 PM EST / 2019.12.14 1700 UTC
Wind: from the SSW (200 degrees) at 5 MPH (4 KT):0
Visibility: greater than 7 mile(s):0
Temperature: 59 F (15 C)
Dew Point: 46 F (8 C)
Relative Humidity: 62%
Pressure (altimeter): 29.85 in. Hg (1011 hPa)
ob: LFBY 141700Z AUTO 20004KT 9999 // ////// 15/08 Q1011
cycle: 17

Station Type Date Time Source
LFBY TAF UTC NOAA

Error!

Example: see airport list